Terminal Aerodrome Forecast
Issued by NWS Louisville, KY

Home | Current Version | Previous Version | Text Only | Print | Product List | Glossary On
Versions: 1 2 3 4 5 6 7 8 9 10 11 12 13 14 15 16 17 18 19 20
000
FTUS43 KLMK 240726 AAA
TAFBWG
TAF AMD
KBWG 240726Z 2407/2506 00000KT 4SM BR SKC
      TEMPO 2409/2413 1SM BR
     FM241300 VRB03KT P6SM FEW250=

USA.gov is the U.S. government's official web portal to all federal, state and local government web resources and services.